AFA189 RCFN-RCFN

Flight info

Callsign AFA189
Flight time 0h 42m
Altitude 3000
Route DCT C14 DCT
Aircraft DA40/L-SBDFGRY/LB2

Departure

Time 2026-04-26 07:57
Airport Taitung Airport (RCFN)

Arrival

Time 2026-04-26 08:39
Airport Taitung Airport (RCFN)
Time Latitude Longitude Altitude Speed Heading
2026-04-26 07:30 22.75939 121.10328 140 ft 0 kts 39°
2026-04-26 07:46 22.75940 121.10329 140 ft 1 kts 40°
2026-04-26 07:46 22.75944 121.10349 140 ft 5 kts 118°
2026-04-26 07:46 22.75916 121.10372 140 ft 5 kts 179°
2026-04-26 07:46 22.75868 121.10337 141 ft 15 kts 219°
2026-04-26 07:47 22.75766 121.10248 140 ft 23 kts 218°
2026-04-26 07:47 22.75626 121.10126 142 ft 27 kts 219°
2026-04-26 07:47 22.75489 121.10007 139 ft 24 kts 221°
2026-04-26 07:47 22.75377 121.09910 141 ft 18 kts 217°
2026-04-26 07:48 22.75284 121.09832 141 ft 16 kts 220°
2026-04-26 07:48 22.75195 121.09756 143 ft 19 kts 219°
2026-04-26 07:48 22.75081 121.09656 147 ft 24 kts 218°
2026-04-26 07:48 22.74957 121.09549 149 ft 20 kts 218°
2026-04-26 07:49 22.74858 121.09462 151 ft 17 kts 220°
2026-04-26 07:49 22.74767 121.09385 149 ft 17 kts 218°
2026-04-26 07:49 22.74702 121.09368 149 ft 0 kts 134°
2026-04-26 07:55 22.74675 121.09416 148 ft 13 kts 121°
2026-04-26 07:55 22.74671 121.09458 147 ft 0 kts 39°
2026-04-26 07:56 22.74764 121.09539 149 ft 42 kts 39°
2026-04-26 07:56 22.75096 121.09827 202 ft 72 kts 40°
2026-04-26 07:56 22.75477 121.10163 439 ft 69 kts 43°
2026-04-26 07:56 22.75841 121.10506 637 ft 74 kts 45°
2026-04-26 07:57 22.76229 121.10862 859 ft 72 kts 43°
2026-04-26 07:57 22.76664 121.11156 1045 ft 75 kts 20°
2026-04-26 07:57 22.77188 121.10965 1222 ft 91 kts 320°
2026-04-26 07:57 22.77531 121.10405 1451 ft 92 kts 302°
2026-04-26 07:58 22.77517 121.09710 1653 ft 100 kts 243°
2026-04-26 07:58 22.77064 121.09176 1887 ft 94 kts 220°
2026-04-26 07:58 22.76544 121.08744 2100 ft 94 kts 216°
2026-04-26 07:58 22.76005 121.08340 2283 ft 95 kts 213°
2026-04-26 07:59 22.75460 121.07932 2490 ft 94 kts 216°
2026-04-26 07:59 22.74907 121.07508 2643 ft 102 kts 216°
2026-04-26 07:59 22.74324 121.07057 2829 ft 104 kts 215°
2026-04-26 07:59 22.73716 121.06597 2977 ft 111 kts 215°
2026-04-26 08:00 22.72971 121.06210 2967 ft 125 kts 196°
2026-04-26 08:00 22.72128 121.05983 3015 ft 125 kts 194°
2026-04-26 08:00 22.71276 121.05745 3025 ft 129 kts 192°
2026-04-26 08:00 22.70375 121.05579 2989 ft 132 kts 186°
2026-04-26 08:01 22.69447 121.05516 2935 ft 136 kts 179°
2026-04-26 08:01 22.68518 121.05527 2987 ft 131 kts 178°
2026-04-26 08:01 22.67599 121.05557 2918 ft 135 kts 172°
2026-04-26 08:01 22.66727 121.05843 2985 ft 125 kts 151°
2026-04-26 08:02 22.66000 121.06368 2928 ft 129 kts 134°
2026-04-26 08:02 22.65573 121.07173 2929 ft 122 kts 97°
2026-04-26 08:02 22.65549 121.08058 2960 ft 118 kts 87°
2026-04-26 08:02 22.65557 121.08941 2968 ft 117 kts 86°
2026-04-26 08:03 22.65564 121.09827 2968 ft 118 kts 86°
2026-04-26 08:03 22.65559 121.10719 2955 ft 119 kts 88°
2026-04-26 08:03 22.65541 121.11608 2971 ft 117 kts 87°
2026-04-26 08:03 22.65560 121.12493 2953 ft 118 kts 85°
2026-04-26 08:04 22.65577 121.13381 2959 ft 118 kts 86°
2026-04-26 08:04 22.65551 121.14273 2966 ft 119 kts 91°
2026-04-26 08:04 22.65507 121.15163 2982 ft 118 kts 88°
2026-04-26 08:04 22.65503 121.16051 2969 ft 119 kts 87°
2026-04-26 08:05 22.65510 121.16942 2970 ft 118 kts 86°
2026-04-26 08:05 22.65514 121.17830 2962 ft 118 kts 86°
2026-04-26 08:05 22.65514 121.18720 2964 ft 118 kts 87°
2026-04-26 08:05 22.65510 121.19606 2957 ft 118 kts 88°
2026-04-26 08:06 22.65499 121.20473 2903 ft 113 kts 87°
2026-04-26 08:06 22.65480 121.21309 2780 ft 110 kts 91°
2026-04-26 08:06 22.65453 121.22130 2632 ft 109 kts 88°
2026-04-26 08:06 22.65469 121.22952 2486 ft 107 kts 85°
2026-04-26 08:07 22.65497 121.23770 2307 ft 111 kts 85°
2026-04-26 08:07 22.65476 121.24600 2185 ft 109 kts 89°
2026-04-26 08:07 22.65473 121.25421 2048 ft 112 kts 85°
2026-04-26 08:07 22.65527 121.26277 1992 ft 116 kts 82°
2026-04-26 08:08 22.65578 121.26857 1981 ft 117 kts 82°
2026-04-26 08:08 22.65704 121.28017 1997 ft 115 kts 80°
2026-04-26 08:08 22.65768 121.28591 1988 ft 117 kts 81°
2026-04-26 08:08 22.65891 121.29756 2010 ft 116 kts 81°
2026-04-26 08:09 22.65957 121.30330 2009 ft 117 kts 79°
2026-04-26 08:09 22.66094 121.31489 2033 ft 116 kts 81°
2026-04-26 08:09 22.66155 121.32065 2033 ft 116 kts 80°
2026-04-26 08:09 22.66254 121.32934 2005 ft 117 kts 81°
2026-04-26 08:10 22.66338 121.33807 2008 ft 116 kts 82°
2026-04-26 08:10 22.66429 121.34679 2010 ft 116 kts 80°
2026-04-26 08:10 22.66527 121.35543 2033 ft 115 kts 81°
2026-04-26 08:10 22.66617 121.36410 2007 ft 117 kts 81°
2026-04-26 08:11 22.66700 121.37282 2014 ft 116 kts 82°
2026-04-26 08:11 22.66769 121.38150 2014 ft 116 kts 82°
2026-04-26 08:11 22.66843 121.39018 1991 ft 112 kts 81°
2026-04-26 08:11 22.66917 121.39836 1870 ft 109 kts 82°
2026-04-26 08:12 22.66967 121.40656 1722 ft 109 kts 84°
2026-04-26 08:12 22.67013 121.41476 1577 ft 109 kts 83°
2026-04-26 08:12 22.67053 121.42293 1422 ft 109 kts 84°
2026-04-26 08:12 22.67086 121.43109 1293 ft 108 kts 84°
2026-04-26 08:13 22.67016 121.43911 1143 ft 111 kts 107°
2026-04-26 08:13 22.66501 121.44539 1021 ft 116 kts 150°
2026-04-26 08:13 22.65760 121.44802 1006 ft 107 kts 159°
2026-04-26 08:13 22.65068 121.45019 985 ft 103 kts 160°
2026-04-26 08:14 22.64393 121.45244 960 ft 96 kts 152°
2026-04-26 08:14 22.64056 121.45772 840 ft 86 kts 86°
2026-04-26 08:14 22.64257 121.46354 740 ft 81 kts 60°
2026-04-26 08:14 22.64596 121.46845 645 ft 78 kts 46°
2026-04-26 08:15 22.65027 121.47167 504 ft 75 kts 21°
2026-04-26 08:15 22.65543 121.47154 370 ft 78 kts 348°
2026-04-26 08:15 22.66062 121.46977 257 ft 77 kts 348°
2026-04-26 08:15 22.66579 121.46837 141 ft 77 kts 349°
2026-04-26 08:16 22.67105 121.46683 48 ft 81 kts 345°
2026-04-26 08:16 22.67681 121.46512 152 ft 84 kts 348°
2026-04-26 08:16 22.68193 121.46369 443 ft 75 kts 352°
2026-04-26 08:16 22.68741 121.46256 602 ft 82 kts 349°
2026-04-26 08:17 22.69127 121.45823 788 ft 93 kts 286°
2026-04-26 08:17 22.68994 121.45118 968 ft 99 kts 255°
2026-04-26 08:17 22.68588 121.44452 932 ft 111 kts 211°
2026-04-26 08:17 22.67862 121.44350 975 ft 103 kts 168°
2026-04-26 08:18 22.67149 121.44463 995 ft 104 kts 168°
2026-04-26 08:18 22.66448 121.44601 1036 ft 99 kts 167°
2026-04-26 08:18 22.65759 121.44727 998 ft 101 kts 167°
2026-04-26 08:18 22.65083 121.44878 1010 ft 98 kts 164°
2026-04-26 08:19 22.64511 121.45183 917 ft 90 kts 120°
2026-04-26 08:19 22.64484 121.45790 801 ft 79 kts 69°
2026-04-26 08:19 22.64669 121.46342 648 ft 76 kts 66°
2026-04-26 08:19 22.64906 121.46845 574 ft 77 kts 56°
2026-04-26 08:20 22.65357 121.47131 493 ft 77 kts 16°
2026-04-26 08:20 22.65889 121.47032 365 ft 80 kts 347°
2026-04-26 08:20 22.66418 121.46885 202 ft 78 kts 351°
2026-04-26 08:20 22.66924 121.46738 34 ft 68 kts 349°
2026-04-26 08:21 22.67287 121.46631 32 ft 52 kts 343°
2026-04-26 08:21 22.67736 121.46496 130 ft 72 kts 349°
2026-04-26 08:21 22.68205 121.46354 366 ft 70 kts 350°
2026-04-26 08:21 22.68685 121.46212 546 ft 76 kts 351°
2026-04-26 08:22 22.69148 121.45945 735 ft 83 kts 306°
2026-04-26 08:22 22.69116 121.45292 909 ft 91 kts 256°
2026-04-26 08:22 22.68740 121.44713 989 ft 106 kts 201°
2026-04-26 08:22 22.68020 121.44813 1008 ft 106 kts 159°
2026-04-26 08:23 22.67320 121.45069 967 ft 109 kts 157°
2026-04-26 08:23 22.66602 121.45348 960 ft 108 kts 158°
2026-04-26 08:23 22.65986 121.45665 875 ft 90 kts 130°
2026-04-26 08:23 22.65854 121.46268 616 ft 83 kts 70°
2026-04-26 08:24 22.66233 121.46713 346 ft 84 kts 29°
2026-04-26 08:24 22.66785 121.46776 68 ft 76 kts 353°
2026-04-26 08:24 22.67193 121.46657 32 ft 47 kts 345°
2026-04-26 08:24 22.67603 121.46529 53 ft 76 kts 349°
2026-04-26 08:25 22.68090 121.46387 299 ft 71 kts 351°
2026-04-26 08:25 22.68571 121.46250 497 ft 74 kts 352°
2026-04-26 08:25 22.69071 121.46078 692 ft 76 kts 327°
2026-04-26 08:25 22.69243 121.45518 861 ft 87 kts 262°
2026-04-26 08:26 22.68873 121.44992 1026 ft 92 kts 214°
2026-04-26 08:26 22.68340 121.44616 1220 ft 92 kts 212°
2026-04-26 08:26 22.67792 121.44252 1417 ft 92 kts 212°
2026-04-26 08:26 22.67252 121.43879 1616 ft 91 kts 224°
2026-04-26 08:27 22.67016 121.43256 1776 ft 92 kts 271°
2026-04-26 08:27 22.66971 121.42572 1975 ft 91 kts 271°
2026-04-26 08:27 22.66898 121.41883 2171 ft 92 kts 268°
2026-04-26 08:27 22.66832 121.41179 2363 ft 95 kts 268°
2026-04-26 08:28 22.66759 121.40441 2509 ft 102 kts 269°
2026-04-26 08:28 22.66707 121.39671 2709 ft 102 kts 272°
2026-04-26 08:28 22.66714 121.38910 2910 ft 102 kts 277°
2026-04-26 08:28 22.66760 121.38118 3011 ft 111 kts 279°
2026-04-26 08:29 22.66843 121.37241 3019 ft 123 kts 281°
2026-04-26 08:29 22.66956 121.36312 3013 ft 126 kts 282°
2026-04-26 08:29 22.67090 121.35366 3005 ft 127 kts 283°
2026-04-26 08:29 22.67235 121.34424 3019 ft 127 kts 286°
2026-04-26 08:30 22.67449 121.33496 3027 ft 127 kts 288°
2026-04-26 08:30 22.67651 121.32571 3031 ft 127 kts 288°
2026-04-26 08:30 22.67851 121.31632 3006 ft 128 kts 286°
2026-04-26 08:30 22.68053 121.30691 3012 ft 128 kts 288°
2026-04-26 08:31 22.68279 121.29763 3036 ft 127 kts 288°
2026-04-26 08:31 22.68456 121.28804 2983 ft 133 kts 278°
2026-04-26 08:31 22.68467 121.27808 3020 ft 130 kts 273°
2026-04-26 08:31 22.68463 121.26821 2975 ft 133 kts 273°
2026-04-26 08:32 22.68456 121.25829 2985 ft 130 kts 273°
2026-04-26 08:32 22.68453 121.24845 2951 ft 130 kts 274°
2026-04-26 08:32 22.68469 121.23898 2875 ft 122 kts 276°
2026-04-26 08:32 22.68463 121.22974 2734 ft 123 kts 272°
2026-04-26 08:33 22.68453 121.22057 2605 ft 121 kts 274°
2026-04-26 08:33 22.68467 121.21124 2402 ft 126 kts 275°
2026-04-26 08:33 22.68505 121.20176 2252 ft 125 kts 277°
2026-04-26 08:33 22.68552 121.19250 2112 ft 124 kts 277°
2026-04-26 08:34 22.68576 121.18316 1950 ft 125 kts 277°
2026-04-26 08:34 22.68692 121.17384 1781 ft 125 kts 284°
2026-04-26 08:34 22.68810 121.16463 1652 ft 123 kts 279°
2026-04-26 08:34 22.68833 121.15519 1467 ft 127 kts 273°
2026-04-26 08:35 22.68841 121.14568 1340 ft 124 kts 276°
2026-04-26 08:35 22.68898 121.13626 1127 ft 127 kts 278°
2026-04-26 08:35 22.68968 121.12705 1074 ft 121 kts 279°
2026-04-26 08:35 22.69039 121.11815 990 ft 116 kts 282°
2026-04-26 08:36 22.69263 121.11034 984 ft 102 kts 309°
2026-04-26 08:36 22.69720 121.10495 1017 ft 93 kts 323°
2026-04-26 08:36 22.70168 121.10010 1044 ft 91 kts 323°
2026-04-26 08:36 22.70570 121.09514 1022 ft 88 kts 316°
2026-04-26 08:37 22.70977 121.09043 923 ft 85 kts 326°
2026-04-26 08:37 22.71389 121.08569 816 ft 86 kts 321°
2026-04-26 08:37 22.71815 121.08137 769 ft 80 kts 335°
2026-04-26 08:37 22.72322 121.07973 715 ft 75 kts
2026-04-26 08:38 22.72834 121.08004 644 ft 73 kts 16°
2026-04-26 08:38 22.73281 121.08242 523 ft 73 kts 44°
2026-04-26 08:38 22.73662 121.08582 434 ft 70 kts 40°
2026-04-26 08:38 22.74055 121.08910 337 ft 73 kts 43°
2026-04-26 08:39 22.74444 121.09260 243 ft 75 kts 41°
2026-04-26 08:39 22.74843 121.09607 158 ft 66 kts 39°
2026-04-26 08:39 22.75123 121.09851 143 ft 40 kts 39°
2026-04-26 08:39 22.75378 121.10067 143 ft 64 kts 38°
2026-04-26 08:40 22.75756 121.10398 309 ft 71 kts 43°
2026-04-26 08:40 22.76129 121.10724 550 ft 68 kts 42°
2026-04-26 08:40 22.76529 121.11080 693 ft 78 kts 45°
2026-04-26 08:40 22.76997 121.11273 925 ft 82 kts 348°
2026-04-26 08:41 22.77431 121.10796 1086 ft 97 kts 316°
2026-04-26 08:41 22.77771 121.10099 1076 ft 113 kts 275°
2026-04-26 08:41 22.77396 121.09361 1062 ft 116 kts 213°
2026-04-26 08:41 22.76781 121.08828 1120 ft 114 kts 215°
2026-04-26 08:42 22.76172 121.08303 1105 ft 112 kts 218°
2026-04-26 08:42 22.75568 121.07768 1055 ft 113 kts 217°
2026-04-26 08:42 22.74952 121.07234 1044 ft 111 kts 217°
2026-04-26 08:42 22.74361 121.06698 1029 ft 111 kts 218°
2026-04-26 08:43 22.73748 121.06265 995 ft 101 kts 186°
2026-04-26 08:43 22.73122 121.06447 854 ft 90 kts 134°
2026-04-26 08:43 22.72759 121.06967 736 ft 85 kts 119°
2026-04-26 08:43 22.72566 121.07502 635 ft 72 kts 76°
2026-04-26 08:44 22.72868 121.07903 568 ft 70 kts 39°
2026-04-26 08:44 22.73263 121.08224 510 ft 71 kts 38°
2026-04-26 08:44 22.73634 121.08567 453 ft 69 kts 38°
2026-04-26 08:44 22.74021 121.08900 357 ft 71 kts 41°
2026-04-26 08:45 22.74415 121.09236 260 ft 74 kts 41°
2026-04-26 08:45 22.74819 121.09584 163 ft 74 kts 40°
2026-04-26 08:45 22.75149 121.09873 142 ft 47 kts 39°
2026-04-26 08:45 22.75354 121.10052 141 ft 31 kts 37°
2026-04-26 08:46 22.75518 121.10190 143 ft 31 kts 38°
2026-04-26 08:46 22.75692 121.10342 142 ft 30 kts 37°
2026-04-26 08:46 22.75827 121.10380 142 ft 16 kts 310°
2026-04-26 08:46 22.75888 121.10355 141 ft 9 kts 40°
2026-04-26 08:47 22.75935 121.10360 140 ft 5 kts 309°
2026-04-26 08:47 22.75950 121.10325 140 ft 4 kts 237°
2026-04-26 08:47 22.75949 121.10301 141 ft 2 kts 324°
2026-04-26 08:47 22.75953 121.10302 141 ft 0 kts 37°